Terminal Aerodrome Forecast
Issued by NWS Charleston, WV

Current Version | Previous Version | Text Only | Print | Product List | Glossary Off
Versions: 1 2 3 4 5 6 7 8 9 10 11 12 13 14 15 16 17 18 19 20 21 22

000
FTUS41 KRLX 301736
TAFCRW
TAF
KCRW 301736Z 3018/3118 30007KT P6SM SKC
     FM310800 00000KT 3SM BR FEW001
     FM311000 00000KT 1/4SM FG BKN001
     FM311200 00000KT 3SM BR SKC
     FM311300 27007KT P6SM FEW050=

USA.gov is the U.S. government's official web portal to all federal, state and local government web resources and services.